createdAt,value
2022-10-31T00:01:18.212Z,11.59
2022-10-31T00:03:45.029Z,11.58
2022-10-31T00:06:11.735Z,11.61
2022-10-31T00:08:38.343Z,11.60
2022-10-31T00:11:09.013Z,11.56
2022-10-31T00:13:35.716Z,11.54
2022-10-31T00:16:02.395Z,11.59
2022-10-31T00:18:29.033Z,11.64
2022-10-31T00:21:03.151Z,11.55
2022-10-31T00:23:30.174Z,11.54
2022-10-31T00:26:04.377Z,11.50
2022-10-31T00:28:31.482Z,11.40
2022-10-31T00:31:06.808Z,11.30
2022-10-31T00:33:38.598Z,11.33
2022-10-31T00:36:07.370Z,11.31
2022-10-31T00:38:34.230Z,11.08
2022-10-31T00:41:00.904Z,10.78
2022-10-31T00:43:27.817Z,10.92
2022-10-31T00:45:54.912Z,11.09
2022-10-31T00:48:24.703Z,11.21
2022-10-31T00:50:52.884Z,11.25
2022-10-31T00:53:19.571Z,11.29
2022-10-31T00:55:46.931Z,11.22
2022-10-31T01:00:41.083Z,11.12
2022-10-31T01:03:08.386Z,10.93
2022-10-31T01:05:39.539Z,10.51
2022-10-31T01:08:06.316Z,10.22
2022-10-31T01:10:33.516Z,9.77
2022-10-31T01:13:00.369Z,10.42
2022-10-31T01:15:27.293Z,10.76
2022-10-31T01:17:53.904Z,10.92
2022-10-31T01:20:21.459Z,10.84
2022-10-31T01:22:48.050Z,10.61
2022-10-31T01:25:14.807Z,11.08
2022-10-31T01:27:41.758Z,10.91
2022-10-31T01:30:09.014Z,10.56
2022-10-31T01:32:35.804Z,10.83
2022-10-31T01:35:03.553Z,10.99
2022-10-31T01:37:31.612Z,10.94
2022-10-31T01:39:58.330Z,10.47
2022-10-31T01:42:24.966Z,10.58
2022-10-31T01:44:59.109Z,10.80
2022-10-31T01:47:42.034Z,10.93
2022-10-31T01:50:21.103Z,10.78
2022-10-31T01:52:51.603Z,10.63
2022-10-31T01:55:41.556Z,9.97
2022-10-31T01:58:13.209Z,9.86
2022-10-31T02:00:43.199Z,9.95
2022-10-31T02:03:10.737Z,9.87
2022-10-31T02:05:37.440Z,10.34
2022-10-31T02:08:30.348Z,10.25
2022-10-31T02:11:02.401Z,10.45
2022-10-31T02:13:30.446Z,10.65
2022-10-31T02:16:00.105Z,10.52
2022-10-31T02:18:31.367Z,10.60
2022-10-31T02:21:22.872Z,10.78
2022-10-31T02:24:23.610Z,10.76
2022-10-31T02:27:00.283Z,10.81
2022-10-31T02:29:51.239Z,10.91
2022-10-31T02:32:31.568Z,10.82
2022-10-31T02:34:58.313Z,10.84
2022-10-31T02:37:24.813Z,10.92
2022-10-31T02:40:07.042Z,10.64
2022-10-31T02:43:21.952Z,10.55
2022-10-31T02:45:59.836Z,10.64
2022-10-31T02:48:31.241Z,10.71
2022-10-31T02:51:01.439Z,10.76
2022-10-31T02:53:34.410Z,10.77
2022-10-31T02:56:15.010Z,10.79
2022-10-31T02:58:50.910Z,10.15
2022-10-31T03:01:52.207Z,10.19
2022-10-31T03:04:27.825Z,9.98
2022-10-31T03:07:16.388Z,9.40
2022-10-31T03:10:14.518Z,9.45
2022-10-31T03:12:53.248Z,9.24
2022-10-31T03:15:35.771Z,8.76
2022-10-31T03:18:21.895Z,8.63
2022-10-31T03:20:48.494Z,8.71
2022-10-31T03:23:16.784Z,9.16
2022-10-31T03:25:48.605Z,9.14
2022-10-31T03:30:54.696Z,9.33
2022-10-31T03:33:28.330Z,9.96
2022-10-31T03:36:00.893Z,9.96
2022-10-31T03:38:29.235Z,9.25
2022-10-31T03:40:59.470Z,8.81
2022-10-31T03:43:31.195Z,9.00
2022-10-31T03:45:58.731Z,8.73
2022-10-31T03:48:26.565Z,9.30
2022-10-31T03:51:16.298Z,9.09
2022-10-31T03:53:55.494Z,8.91
2022-10-31T03:56:31.960Z,9.08
2022-10-31T03:59:03.233Z,9.20
2022-10-31T04:01:32.716Z,9.34
2022-10-31T04:04:00.289Z,9.64
2022-10-31T04:06:28.546Z,9.86
2022-10-31T04:09:01.701Z,10.01
2022-10-31T04:11:32.497Z,10.00
2022-10-31T04:14:30.842Z,10.00
2022-10-31T04:16:59.038Z,10.02
2022-10-31T04:19:35.113Z,9.87
2022-10-31T04:22:02.444Z,9.98
2022-10-31T04:24:29.709Z,9.95
2022-10-31T04:26:58.658Z,9.90
2022-10-31T04:29:25.975Z,9.67
2022-10-31T04:31:53.308Z,9.45
2022-10-31T04:34:19.811Z,9.17
2022-10-31T04:36:46.491Z,9.13
2022-10-31T04:39:16.136Z,9.02
2022-10-31T04:41:50.211Z,8.65
2022-10-31T04:44:18.869Z,8.32
2022-10-31T04:46:49.556Z,8.63
2022-10-31T04:49:16.985Z,8.89
2022-10-31T04:51:44.310Z,8.84
2022-10-31T04:54:10.811Z,9.19
2022-10-31T04:56:40.053Z,9.55
2022-10-31T04:59:14.084Z,9.10
2022-10-31T05:01:48.465Z,9.03
2022-10-31T05:04:18.639Z,9.27
2022-10-31T05:06:45.347Z,9.38
2022-10-31T05:09:11.983Z,9.39
2022-10-31T05:11:38.998Z,9.24
2022-10-31T05:14:32.299Z,9.42
2022-10-31T05:17:28.140Z,9.39
2022-10-31T05:20:27.319Z,9.33
2022-10-31T05:23:14.134Z,9.43
2022-10-31T05:25:42.148Z,9.38
2022-10-31T05:28:08.857Z,9.50
2022-10-31T05:30:35.675Z,9.46
2022-10-31T05:33:04.259Z,9.39
2022-10-31T05:35:49.523Z,9.29
2022-10-31T05:38:28.939Z,9.35
2022-10-31T05:41:00.996Z,9.55
2022-10-31T05:43:30.121Z,9.52
2022-10-31T05:45:57.443Z,9.41
2022-10-31T05:48:55.445Z,9.43
2022-10-31T05:51:43.001Z,9.34
2022-10-31T05:54:13.349Z,9.32
2022-10-31T05:56:44.482Z,9.26
2022-10-31T05:59:11.302Z,9.10
2022-10-31T06:01:39.691Z,9.12
2022-10-31T06:04:14.821Z,9.20
2022-10-31T06:06:43.302Z,9.23
2022-10-31T06:09:10.256Z,9.12
2022-10-31T06:11:37.352Z,9.17
2022-10-31T06:14:05.173Z,9.25
2022-10-31T06:16:45.656Z,9.02
2022-10-31T06:19:31.021Z,8.96
2022-10-31T06:21:59.188Z,9.12
2022-10-31T06:24:25.875Z,9.07
2022-10-31T06:27:03.988Z,9.21
2022-10-31T06:29:33.031Z,9.20
2022-10-31T06:32:11.503Z,9.27
2022-10-31T06:34:42.777Z,9.22
2022-10-31T06:37:13.668Z,9.20
2022-10-31T06:39:44.155Z,8.71
2022-10-31T06:42:13.088Z,8.86
2022-10-31T06:44:39.769Z,9.06
2022-10-31T06:47:25.182Z,9.40
2022-10-31T06:50:06.339Z,9.41
2022-10-31T06:52:33.215Z,9.39
2022-10-31T06:54:59.939Z,9.41
2022-10-31T06:57:31.066Z,9.64
2022-10-31T06:59:57.791Z,9.87
2022-10-31T07:02:42.926Z,10.06
2022-10-31T07:05:09.490Z,10.22
2022-10-31T07:07:36.742Z,10.26
2022-10-31T07:10:03.474Z,10.56
2022-10-31T07:13:00.669Z,10.66
2022-10-31T07:15:31.286Z,10.63
2022-10-31T07:18:02.908Z,10.69
2022-10-31T07:20:32.318Z,10.85
2022-10-31T07:22:59.887Z,10.53
2022-10-31T07:25:28.083Z,10.41
2022-10-31T07:28:04.184Z,10.94
2022-10-31T07:30:31.097Z,11.06
2022-10-31T07:32:57.797Z,11.43
2022-10-31T07:35:41.631Z,11.20
2022-10-31T07:38:18.651Z,11.30
2022-10-31T07:40:51.681Z,11.63
2022-10-31T07:43:18.492Z,11.27
2022-10-31T07:46:05.538Z,11.24
2022-10-31T07:48:50.610Z,10.98
2022-10-31T07:51:35.644Z,11.20
2022-10-31T07:54:34.640Z,11.02
2022-10-31T07:57:01.415Z,10.55
2022-10-31T07:59:29.000Z,11.39
2022-10-31T08:01:55.606Z,11.06
2022-10-31T08:04:31.217Z,11.15
2022-10-31T08:07:16.392Z,11.95
2022-10-31T08:09:49.034Z,11.93
2022-10-31T08:12:21.712Z,11.97
2022-10-31T08:14:48.632Z,12.09
2022-10-31T08:17:18.171Z,11.88
2022-10-31T08:19:51.549Z,12.72
2022-10-31T08:22:20.204Z,12.79
2022-10-31T08:24:48.861Z,13.09
2022-10-31T08:27:15.472Z,13.32
2022-10-31T08:29:42.235Z,13.54
2022-10-31T08:32:09.068Z,13.71
2022-10-31T08:34:54.390Z,12.89
2022-10-31T08:37:32.980Z,13.55
2022-10-31T08:39:59.987Z,13.87
2022-10-31T08:42:26.701Z,13.33
2022-10-31T08:44:53.326Z,13.74
2022-10-31T08:47:22.113Z,13.98
2022-10-31T08:49:48.946Z,13.75
2022-10-31T08:52:17.066Z,14.49
2022-10-31T08:54:46.796Z,14.70
2022-10-31T08:57:56.521Z,14.41
2022-10-31T09:00:25.018Z,14.93
2022-10-31T09:03:18.010Z,15.40
2022-10-31T09:05:45.125Z,15.15
2022-10-31T09:08:16.303Z,15.49
2022-10-31T09:10:45.879Z,15.63
2022-10-31T09:13:17.818Z,15.77
2022-10-31T09:16:03.077Z,15.84
2022-10-31T09:18:32.925Z,15.76
2022-10-31T09:21:01.145Z,15.66
2022-10-31T09:23:30.339Z,15.88
2022-10-31T09:26:00.927Z,15.70
2022-10-31T09:28:47.524Z,16.45
2022-10-31T09:31:17.436Z,16.50
2022-10-31T09:34:19.594Z,15.95
2022-10-31T09:37:06.462Z,16.73
2022-10-31T09:39:35.772Z,17.09
2022-10-31T09:42:26.681Z,16.17
2022-10-31T09:45:19.151Z,15.98
2022-10-31T09:48:08.812Z,16.34
2022-10-31T09:50:48.616Z,16.57
2022-10-31T09:54:03.642Z,16.85
2022-10-31T09:56:36.516Z,17.39
2022-10-31T09:59:06.265Z,17.19
2022-10-31T10:02:05.847Z,17.68
2022-10-31T10:04:40.546Z,17.93
2022-10-31T10:07:42.853Z,18.11
2022-10-31T10:10:41.616Z,18.29
2022-10-31T10:13:33.841Z,18.59
2022-10-31T10:16:10.243Z,18.68
2022-10-31T10:19:07.152Z,18.80
2022-10-31T10:21:43.744Z,18.84
2022-10-31T10:24:19.763Z,19.01
2022-10-31T10:27:20.731Z,18.82
2022-10-31T10:30:02.716Z,18.71
2022-10-31T10:32:35.309Z,18.80
2022-10-31T10:35:18.266Z,18.70
2022-10-31T10:37:47.671Z,18.92
2022-10-31T10:40:14.715Z,18.87
2022-10-31T10:43:01.373Z,19.06
2022-10-31T10:45:46.820Z,19.35
2022-10-31T10:48:40.496Z,19.28
2022-10-31T10:51:25.719Z,19.50
2022-10-31T10:54:48.066Z,19.50
2022-10-31T10:57:33.584Z,19.58
2022-10-31T11:00:07.402Z,19.36
2022-10-31T11:02:34.855Z,19.02
2022-10-31T11:05:04.096Z,18.97
2022-10-31T11:07:40.910Z,19.15
2022-10-31T11:10:17.292Z,19.41
2022-10-31T11:12:46.889Z,19.41
2022-10-31T11:15:21.349Z,19.40
2022-10-31T11:17:53.633Z,19.38
2022-10-31T11:20:20.488Z,19.23
2022-10-31T11:22:49.404Z,19.44
2022-10-31T11:25:23.920Z,19.68
2022-10-31T11:28:06.079Z,19.61
2022-10-31T11:30:43.825Z,19.29
2022-10-31T11:33:25.804Z,19.73
2022-10-31T11:35:57.011Z,19.98
2022-10-31T11:38:48.443Z,20.37
2022-10-31T11:41:31.094Z,20.11
2022-10-31T11:44:01.036Z,20.32
2022-10-31T11:46:40.546Z,20.61
2022-10-31T11:49:17.520Z,20.64
2022-10-31T11:51:48.634Z,20.72
2022-10-31T11:54:51.928Z,20.78
2022-10-31T11:57:44.284Z,20.86
2022-10-31T12:00:25.148Z,20.85
2022-10-31T12:03:25.609Z,20.59
2022-10-31T12:06:12.969Z,20.77
2022-10-31T12:08:41.832Z,20.83
2022-10-31T12:11:30.288Z,20.89
2022-10-31T12:14:15.534Z,20.94
2022-10-31T12:17:15.719Z,20.86
2022-10-31T12:20:00.308Z,20.86
2022-10-31T12:22:53.522Z,20.84
2022-10-31T12:25:29.303Z,20.72
2022-10-31T12:28:16.091Z,20.95
2022-10-31T12:31:14.127Z,20.88
2022-10-31T12:33:52.952Z,20.68
2022-10-31T12:36:31.351Z,20.70
2022-10-31T12:39:19.698Z,20.92
2022-10-31T12:41:49.127Z,20.82
2022-10-31T12:44:57.580Z,20.91
2022-10-31T12:47:43.020Z,21.18
2022-10-31T12:50:26.604Z,21.21
2022-10-31T16:35:24.609Z,13.47
2022-10-31T16:37:51.748Z,13.34
2022-10-31T16:40:18.786Z,13.55
2022-10-31T16:42:49.597Z,13.66
2022-10-31T16:45:26.140Z,13.69
2022-10-31T16:47:53.399Z,13.75
2022-10-31T16:50:26.070Z,13.62
2022-10-31T16:53:12.916Z,13.69
2022-10-31T16:55:45.987Z,13.56
2022-10-31T16:58:34.753Z,13.44
2022-10-31T17:01:07.376Z,13.42
2022-10-31T17:06:34.056Z,13.14
2022-10-31T17:09:01.554Z,13.36
2022-10-31T17:11:28.379Z,13.17
2022-10-31T17:13:56.908Z,13.13
2022-10-31T17:16:23.847Z,13.00
2022-10-31T17:18:50.746Z,13.18
2022-10-31T17:21:23.066Z,12.97
2022-10-31T17:23:52.866Z,12.57
2022-10-31T17:26:21.571Z,12.45
2022-10-31T17:28:48.177Z,12.32
2022-10-31T17:31:28.214Z,12.37
2022-10-31T17:34:02.099Z,12.04
2022-10-31T17:36:31.545Z,12.12
2022-10-31T17:38:58.287Z,12.06
2022-10-31T17:41:25.266Z,12.18
2022-10-31T17:43:59.422Z,12.26
2022-10-31T17:46:28.608Z,12.12
2022-10-31T17:49:00.925Z,12.28
2022-10-31T17:51:27.834Z,12.03
2022-10-31T17:53:54.520Z,12.22
2022-10-31T17:56:21.486Z,12.38
2022-10-31T17:58:48.195Z,12.42
2022-10-31T18:01:17.769Z,12.15
2022-10-31T18:03:45.228Z,12.03
2022-10-31T18:06:14.777Z,12.16
2022-10-31T18:08:41.397Z,11.93
2022-10-31T18:11:10.972Z,11.94
2022-10-31T18:13:39.041Z,12.13
2022-10-31T18:16:15.747Z,12.25
2022-10-31T18:18:42.858Z,12.33
2022-10-31T18:21:09.814Z,12.19
2022-10-31T18:23:36.449Z,12.06
2022-10-31T18:26:03.359Z,11.97
2022-10-31T18:28:30.806Z,12.19
2022-10-31T18:31:01.017Z,12.27
2022-10-31T18:33:27.889Z,11.81
2022-10-31T18:35:54.992Z,12.02
2022-10-31T18:38:22.406Z,12.04
2022-10-31T18:40:49.077Z,12.29
2022-10-31T18:43:15.854Z,12.48
2022-10-31T18:45:47.894Z,12.51
2022-10-31T18:48:17.313Z,12.36
2022-10-31T18:50:44.292Z,11.99
2022-10-31T18:53:11.220Z,12.18
2022-10-31T18:55:47.490Z,12.06
2022-10-31T18:58:17.791Z,11.91
2022-10-31T19:00:46.013Z,11.89
2022-10-31T19:03:13.941Z,12.19
2022-10-31T19:05:40.885Z,12.14
2022-10-31T19:08:07.893Z,12.27
2022-10-31T19:10:36.724Z,12.17
2022-10-31T19:13:03.987Z,12.11
2022-10-31T19:15:31.304Z,12.20
2022-10-31T19:17:57.864Z,12.09
2022-10-31T19:20:24.379Z,12.16
2022-10-31T19:22:51.202Z,12.35
2022-10-31T19:25:18.276Z,12.38
2022-10-31T19:27:44.933Z,12.25
2022-10-31T19:30:12.757Z,12.34
2022-10-31T19:32:39.463Z,12.22
2022-10-31T19:35:09.229Z,12.10
2022-10-31T19:37:37.173Z,12.07
2022-10-31T19:40:16.201Z,12.15
2022-10-31T19:42:43.253Z,12.12
2022-10-31T19:45:10.058Z,12.02
2022-10-31T19:47:37.118Z,11.88
2022-10-31T19:50:05.503Z,11.86
2022-10-31T19:52:36.087Z,11.83
2022-10-31T19:55:04.744Z,12.02
2022-10-31T19:58:00.649Z,12.04
2022-10-31T20:00:21.600Z,11.81
2022-10-31T20:02:48.226Z,12.02
2022-10-31T20:05:15.571Z,11.96
2022-10-31T20:07:42.546Z,11.94
2022-10-31T20:10:09.631Z,12.01
2022-10-31T20:12:36.400Z,12.05
2022-10-31T20:15:03.613Z,11.91
2022-10-31T20:17:30.224Z,11.97
2022-10-31T20:19:56.919Z,12.15
2022-10-31T20:22:23.818Z,12.22
2022-10-31T20:24:50.402Z,12.18
2022-10-31T20:27:17.155Z,12.38
2022-10-31T20:29:43.783Z,12.34
2022-10-31T20:32:10.314Z,12.08
2022-10-31T20:34:36.945Z,11.98
2022-10-31T20:37:04.423Z,12.05
2022-10-31T20:39:32.125Z,11.82
2022-10-31T20:41:58.789Z,11.95
2022-10-31T20:44:25.496Z,11.82
2022-10-31T20:46:53.112Z,11.74
2022-10-31T20:49:19.703Z,11.64
2022-10-31T20:51:46.371Z,11.81
2022-10-31T20:54:15.408Z,11.54
2022-10-31T20:56:42.545Z,11.75
2022-10-31T20:59:09.307Z,11.72
2022-10-31T21:01:37.868Z,11.46
2022-10-31T21:04:05.353Z,11.72
2022-10-31T21:06:32.570Z,11.75
2022-10-31T21:08:59.295Z,11.72
2022-10-31T21:11:27.582Z,11.69
2022-10-31T21:13:54.346Z,11.74
2022-10-31T21:16:24.150Z,11.87
2022-10-31T21:18:52.194Z,11.85
2022-10-31T21:21:24.151Z,11.61
2022-10-31T21:23:58.401Z,11.93
2022-10-31T21:26:27.371Z,12.07
2022-10-31T21:28:57.627Z,11.81
2022-10-31T21:31:24.782Z,11.62
2022-10-31T21:33:51.914Z,11.43
2022-10-31T21:36:18.919Z,11.48
2022-10-31T21:38:50.262Z,11.54
2022-10-31T21:41:18.837Z,11.61
2022-10-31T21:43:47.852Z,11.67
2022-10-31T21:46:20.386Z,11.92
2022-10-31T21:48:48.180Z,12.01
2022-10-31T21:51:18.343Z,11.86
2022-10-31T21:54:03.686Z,11.82
2022-10-31T21:56:31.009Z,11.89
2022-10-31T21:58:57.913Z,11.73
2022-10-31T22:01:26.381Z,11.65
2022-10-31T22:03:53.997Z,11.63
2022-10-31T22:06:21.553Z,11.63
2022-10-31T22:08:48.481Z,11.65
2022-10-31T22:11:17.314Z,11.58
2022-10-31T22:13:46.290Z,11.77
2022-10-31T22:16:21.091Z,11.39
2022-10-31T22:18:51.267Z,11.24
2022-10-31T22:21:19.904Z,11.14
2022-10-31T22:23:51.654Z,11.21
2022-10-31T22:26:18.956Z,11.13
2022-10-31T22:28:47.876Z,11.29
2022-10-31T22:31:17.995Z,11.50
2022-10-31T22:33:46.029Z,11.58
2022-10-31T22:36:15.434Z,11.47
2022-10-31T22:38:42.770Z,11.53
2022-10-31T22:41:12.492Z,11.61
2022-10-31T22:43:39.352Z,11.30
2022-10-31T22:46:08.189Z,11.46
2022-10-31T22:48:39.089Z,11.37
2022-10-31T22:51:07.635Z,11.47
2022-10-31T22:53:35.474Z,11.64
2022-10-31T22:56:03.992Z,11.72
2022-10-31T22:58:31.642Z,11.70
2022-10-31T23:00:59.119Z,11.62
2022-10-31T23:03:26.323Z,11.59
2022-10-31T23:06:06.431Z,11.51
2022-10-31T23:08:36.231Z,11.65
2022-10-31T23:11:13.356Z,11.77
2022-10-31T23:13:58.611Z,11.77
2022-10-31T23:16:25.482Z,11.48
2022-10-31T23:18:52.107Z,11.38
2022-10-31T23:21:38.037Z,11.51
2022-10-31T23:24:04.908Z,11.69
2022-10-31T23:26:50.496Z,11.72
2022-10-31T23:29:17.104Z,11.67
2022-10-31T23:31:43.628Z,11.72
2022-10-31T23:34:10.339Z,11.82
2022-10-31T23:36:37.914Z,11.85
2022-10-31T23:39:04.711Z,11.83
2022-10-31T23:41:31.329Z,12.04
2022-10-31T23:43:57.925Z,12.10
2022-10-31T23:46:24.547Z,12.04
2022-10-31T23:48:51.310Z,11.99
2022-10-31T23:51:17.980Z,12.00
2022-10-31T23:53:47.338Z,11.66
2022-10-31T23:56:15.059Z,11.71
2022-10-31T23:58:42.033Z,11.75
